sensor_id;sensor_type;location;lat;lon;timestamp;pressure;altitude;pressure_sealevel;temperature
7389;BMP180;3735;50.136;11.062;2022-08-25T00:01:54;98472.00;;;16.60
7389;BMP180;3735;50.136;11.062;2022-08-25T00:04:22;98474.00;;;16.50
7389;BMP180;3735;50.136;11.062;2022-08-25T00:06:49;98467.00;;;16.50
7389;BMP180;3735;50.136;11.062;2022-08-25T00:09:21;98470.00;;;16.50
7389;BMP180;3735;50.136;11.062;2022-08-25T00:11:48;98462.00;;;16.50
7389;BMP180;3735;50.136;11.062;2022-08-25T00:14:23;98460.00;;;16.40
7389;BMP180;3735;50.136;11.062;2022-08-25T00:16:49;98458.00;;;16.40
7389;BMP180;3735;50.136;11.062;2022-08-25T00:19:22;98457.00;;;16.40
7389;BMP180;3735;50.136;11.062;2022-08-25T00:21:48;98451.00;;;16.40
7389;BMP180;3735;50.136;11.062;2022-08-25T00:24:17;98443.00;;;16.40
7389;BMP180;3735;50.136;11.062;2022-08-25T00:26:48;98460.00;;;16.40
7389;BMP180;3735;50.136;11.062;2022-08-25T00:29:15;98450.00;;;16.40
7389;BMP180;3735;50.136;11.062;2022-08-25T00:31:42;98454.00;;;16.40
7389;BMP180;3735;50.136;11.062;2022-08-25T00:34:15;98442.00;;;16.40
7389;BMP180;3735;50.136;11.062;2022-08-25T00:36:41;98446.00;;;16.40
7389;BMP180;3735;50.136;11.062;2022-08-25T00:39:09;98453.00;;;16.30
7389;BMP180;3735;50.136;11.062;2022-08-25T00:41:37;98452.00;;;16.30
7389;BMP180;3735;50.136;11.062;2022-08-25T00:44:07;98447.00;;;16.30
7389;BMP180;3735;50.136;11.062;2022-08-25T00:46:42;98437.00;;;16.30
7389;BMP180;3735;50.136;11.062;2022-08-25T00:49:20;98449.00;;;16.30
7389;BMP180;3735;50.136;11.062;2022-08-25T00:52:22;98446.00;;;16.30
7389;BMP180;3735;50.136;11.062;2022-08-25T00:54:57;98448.00;;;16.30
7389;BMP180;3735;50.136;11.062;2022-08-25T00:57:32;98446.00;;;16.20
7389;BMP180;3735;50.136;11.062;2022-08-25T00:59:59;98449.00;;;16.20
7389;BMP180;3735;50.136;11.062;2022-08-25T01:02:25;98438.00;;;16.10
7389;BMP180;3735;50.136;11.062;2022-08-25T01:04:51;98435.00;;;16.10
7389;BMP180;3735;50.136;11.062;2022-08-25T01:07:19;98446.00;;;16.10
7389;BMP180;3735;50.136;11.062;2022-08-25T01:09:51;98446.00;;;16.10
7389;BMP180;3735;50.136;11.062;2022-08-25T01:12:17;98447.00;;;16.10
7389;BMP180;3735;50.136;11.062;2022-08-25T01:14:45;98456.00;;;16.10
7389;BMP180;3735;50.136;11.062;2022-08-25T01:17:11;98437.00;;;16.10
7389;BMP180;3735;50.136;11.062;2022-08-25T01:19:37;98442.00;;;16.10
7389;BMP180;3735;50.136;11.062;2022-08-25T01:22:04;98449.00;;;16.10
7389;BMP180;3735;50.136;11.062;2022-08-25T01:24:50;98442.00;;;16.10
7389;BMP180;3735;50.136;11.062;2022-08-25T01:27:17;98442.00;;;16.00
7389;BMP180;3735;50.136;11.062;2022-08-25T01:29:44;98437.00;;;16.00
7389;BMP180;3735;50.136;11.062;2022-08-25T01:32:12;98440.00;;;16.00
7389;BMP180;3735;50.136;11.062;2022-08-25T01:34:43;98430.00;;;16.00
7389;BMP180;3735;50.136;11.062;2022-08-25T01:37:12;98430.00;;;16.00
7389;BMP180;3735;50.136;11.062;2022-08-25T01:39:38;98439.00;;;15.90
7389;BMP180;3735;50.136;11.062;2022-08-25T01:45:16;98422.00;;;15.90
7389;BMP180;3735;50.136;11.062;2022-08-25T01:47:43;98426.00;;;15.90
7389;BMP180;3735;50.136;11.062;2022-08-25T01:50:09;98424.00;;;15.90
7389;BMP180;3735;50.136;11.062;2022-08-25T01:53:06;98424.00;;;15.90
7389;BMP180;3735;50.136;11.062;2022-08-25T01:55:34;98427.00;;;15.80
7389;BMP180;3735;50.136;11.062;2022-08-25T01:58:29;98396.00;;;15.80
7389;BMP180;3735;50.136;11.062;2022-08-25T02:00:59;98421.00;;;15.70
7389;BMP180;3735;50.136;11.062;2022-08-25T02:03:26;98418.00;;;15.60
7389;BMP180;3735;50.136;11.062;2022-08-25T02:05:55;98416.00;;;15.60
7389;BMP180;3735;50.136;11.062;2022-08-25T02:08:22;98417.00;;;15.50
7389;BMP180;3735;50.136;11.062;2022-08-25T02:10:48;98413.00;;;15.50
7389;BMP180;3735;50.136;11.062;2022-08-25T02:13:15;98415.00;;;15.50
7389;BMP180;3735;50.136;11.062;2022-08-25T02:15:44;98423.00;;;15.40
7389;BMP180;3735;50.136;11.062;2022-08-25T02:18:11;98419.00;;;15.40
7389;BMP180;3735;50.136;11.062;2022-08-25T02:20:37;98409.00;;;15.30
7389;BMP180;3735;50.136;11.062;2022-08-25T02:23:03;98422.00;;;15.30
7389;BMP180;3735;50.136;11.062;2022-08-25T02:25:30;98418.00;;;15.30
7389;BMP180;3735;50.136;11.062;2022-08-25T02:27:56;98418.00;;;15.30
7389;BMP180;3735;50.136;11.062;2022-08-25T02:30:23;98421.00;;;15.30
7389;BMP180;3735;50.136;11.062;2022-08-25T02:32:49;98416.00;;;15.40
7389;BMP180;3735;50.136;11.062;2022-08-25T02:35:16;98408.00;;;15.40
7389;BMP180;3735;50.136;11.062;2022-08-25T02:37:42;98417.00;;;15.50
7389;BMP180;3735;50.136;11.062;2022-08-25T02:40:09;98412.00;;;15.50
7389;BMP180;3735;50.136;11.062;2022-08-25T02:42:34;98416.00;;;15.50
7389;BMP180;3735;50.136;11.062;2022-08-25T02:45:00;98409.00;;;15.50
7389;BMP180;3735;50.136;11.062;2022-08-25T02:47:26;98405.00;;;15.50
7389;BMP180;3735;50.136;11.062;2022-08-25T02:49:52;98407.00;;;15.50
7389;BMP180;3735;50.136;11.062;2022-08-25T02:52:18;98398.00;;;15.50
7389;BMP180;3735;50.136;11.062;2022-08-25T02:54:44;98394.00;;;15.50
7389;BMP180;3735;50.136;11.062;2022-08-25T02:57:10;98375.00;;;15.50
7389;BMP180;3735;50.136;11.062;2022-08-25T02:59:37;98383.00;;;15.50
7389;BMP180;3735;50.136;11.062;2022-08-25T03:02:04;98386.00;;;15.60
7389;BMP180;3735;50.136;11.062;2022-08-25T03:04:31;98369.00;;;15.40
7389;BMP180;3735;50.136;11.062;2022-08-25T03:06:57;98385.00;;;15.50
7389;BMP180;3735;50.136;11.062;2022-08-25T03:09:25;98388.00;;;15.50
7389;BMP180;3735;50.136;11.062;2022-08-25T03:11:51;98382.00;;;15.50
7389;BMP180;3735;50.136;11.062;2022-08-25T03:14:17;98390.00;;;15.50
7389;BMP180;3735;50.136;11.062;2022-08-25T03:16:43;98392.00;;;15.40
7389;BMP180;3735;50.136;11.062;2022-08-25T03:19:09;98370.00;;;15.50
7389;BMP180;3735;50.136;11.062;2022-08-25T03:21:36;98386.00;;;15.40
7389;BMP180;3735;50.136;11.062;2022-08-25T03:24:04;98385.00;;;15.40
7389;BMP180;3735;50.136;11.062;2022-08-25T03:26:31;98379.00;;;15.30
7389;BMP180;3735;50.136;11.062;2022-08-25T03:29:15;98385.00;;;15.30
7389;BMP180;3735;50.136;11.062;2022-08-25T03:31:43;98378.00;;;15.20
7389;BMP180;3735;50.136;11.062;2022-08-25T03:34:14;98392.00;;;15.10
7389;BMP180;3735;50.136;11.062;2022-08-25T03:36:46;98388.00;;;15.00
7389;BMP180;3735;50.136;11.062;2022-08-25T03:39:13;98385.00;;;15.00
7389;BMP180;3735;50.136;11.062;2022-08-25T03:41:39;98393.00;;;15.00
7389;BMP180;3735;50.136;11.062;2022-08-25T03:44:06;98395.00;;;15.00
7389;BMP180;3735;50.136;11.062;2022-08-25T03:46:47;98387.00;;;15.00
7389;BMP180;3735;50.136;11.062;2022-08-25T03:49:17;98389.00;;;15.00
7389;BMP180;3735;50.136;11.062;2022-08-25T03:51:47;98398.00;;;15.00
7389;BMP180;3735;50.136;11.062;2022-08-25T03:54:17;98378.00;;;14.90
7389;BMP180;3735;50.136;11.062;2022-08-25T03:56:43;98385.00;;;14.90
7389;BMP180;3735;50.136;11.062;2022-08-25T03:59:10;98399.00;;;14.90
7389;BMP180;3735;50.136;11.062;2022-08-25T04:01:40;98395.00;;;14.90
7389;BMP180;3735;50.136;11.062;2022-08-25T04:04:09;98392.00;;;14.90
7389;BMP180;3735;50.136;11.062;2022-08-25T04:06:37;98388.00;;;14.90
7389;BMP180;3735;50.136;11.062;2022-08-25T04:09:03;98387.00;;;14.90
7389;BMP180;3735;50.136;11.062;2022-08-25T04:11:29;98386.00;;;14.90
7389;BMP180;3735;50.136;11.062;2022-08-25T04:13:57;98384.00;;;15.00
7389;BMP180;3735;50.136;11.062;2022-08-25T04:16:26;98384.00;;;15.00
7389;BMP180;3735;50.136;11.062;2022-08-25T04:18:56;98383.00;;;15.00
7389;BMP180;3735;50.136;11.062;2022-08-25T04:21:24;98388.00;;;15.10
7389;BMP180;3735;50.136;11.062;2022-08-25T04:23:52;98378.00;;;15.20
7389;BMP180;3735;50.136;11.062;2022-08-25T04:26:27;98374.00;;;15.20
7389;BMP180;3735;50.136;11.062;2022-08-25T04:28:56;98370.00;;;15.20
7389;BMP180;3735;50.136;11.062;2022-08-25T04:31:22;98379.00;;;15.20
7389;BMP180;3735;50.136;11.062;2022-08-25T04:33:49;98370.00;;;15.20
7389;BMP180;3735;50.136;11.062;2022-08-25T04:36:17;98377.00;;;15.20
7389;BMP180;3735;50.136;11.062;2022-08-25T04:38:45;98375.00;;;15.20
7389;BMP180;3735;50.136;11.062;2022-08-25T04:41:13;98370.00;;;15.20
7389;BMP180;3735;50.136;11.062;2022-08-25T04:43:41;98373.00;;;15.20
7389;BMP180;3735;50.136;11.062;2022-08-25T04:46:17;98371.00;;;15.30
7389;BMP180;3735;50.136;11.062;2022-08-25T04:48:44;98365.00;;;15.30
7389;BMP180;3735;50.136;11.062;2022-08-25T04:51:14;98385.00;;;15.40
7389;BMP180;3735;50.136;11.062;2022-08-25T04:53:41;98387.00;;;15.40
7389;BMP180;3735;50.136;11.062;2022-08-25T04:56:13;98381.00;;;15.50
7389;BMP180;3735;50.136;11.062;2022-08-25T04:58:40;98384.00;;;15.50
7389;BMP180;3735;50.136;11.062;2022-08-25T05:01:10;98389.00;;;15.50
7389;BMP180;3735;50.136;11.062;2022-08-25T05:03:37;98392.00;;;15.60
7389;BMP180;3735;50.136;11.062;2022-08-25T05:06:04;98394.00;;;15.80
7389;BMP180;3735;50.136;11.062;2022-08-25T05:08:31;98389.00;;;15.90
7389;BMP180;3735;50.136;11.062;2022-08-25T05:10:57;98391.00;;;16.00
7389;BMP180;3735;50.136;11.062;2022-08-25T05:13:24;98381.00;;;16.10
7389;BMP180;3735;50.136;11.062;2022-08-25T05:15:58;98397.00;;;16.30
7389;BMP180;3735;50.136;11.062;2022-08-25T05:18:28;98394.00;;;16.50
7389;BMP180;3735;50.136;11.062;2022-08-25T05:20:55;98382.00;;;16.70
7389;BMP180;3735;50.136;11.062;2022-08-25T05:23:23;98377.00;;;16.80
7389;BMP180;3735;50.136;11.062;2022-08-25T05:25:51;98375.00;;;16.90
7389;BMP180;3735;50.136;11.062;2022-08-25T05:28:19;98366.00;;;17.10
7389;BMP180;3735;50.136;11.062;2022-08-25T05:30:46;98360.00;;;17.70
7389;BMP180;3735;50.136;11.062;2022-08-25T05:33:15;98362.00;;;18.10
7389;BMP180;3735;50.136;11.062;2022-08-25T05:35:41;98358.00;;;18.40
7389;BMP180;3735;50.136;11.062;2022-08-25T05:38:08;98356.00;;;18.70
7389;BMP180;3735;50.136;11.062;2022-08-25T05:40:35;98346.00;;;19.00
7389;BMP180;3735;50.136;11.062;2022-08-25T05:43:01;98358.00;;;19.50
7389;BMP180;3735;50.136;11.062;2022-08-25T05:45:27;98352.00;;;20.00
7389;BMP180;3735;50.136;11.062;2022-08-25T05:47:53;98357.00;;;20.80
7389;BMP180;3735;50.136;11.062;2022-08-25T05:50:19;98352.00;;;21.50
7389;BMP180;3735;50.136;11.062;2022-08-25T05:52:44;98346.00;;;22.10
7389;BMP180;3735;50.136;11.062;2022-08-25T05:55:11;98338.00;;;22.60
7389;BMP180;3735;50.136;11.062;2022-08-25T05:57:37;98332.00;;;23.40
7389;BMP180;3735;50.136;11.062;2022-08-25T06:00:06;98340.00;;;23.80
7389;BMP180;3735;50.136;11.062;2022-08-25T06:02:32;98341.00;;;24.10
7389;BMP180;3735;50.136;11.062;2022-08-25T06:05:21;98338.00;;;24.40
7389;BMP180;3735;50.136;11.062;2022-08-25T06:07:50;98339.00;;;24.50
7389;BMP180;3735;50.136;11.062;2022-08-25T06:10:17;98342.00;;;24.80
7389;BMP180;3735;50.136;11.062;2022-08-25T06:12:45;98335.00;;;24.50
7389;BMP180;3735;50.136;11.062;2022-08-25T06:15:18;98340.00;;;24.80
7389;BMP180;3735;50.136;11.062;2022-08-25T06:17:45;98341.00;;;25.00
7389;BMP180;3735;50.136;11.062;2022-08-25T06:20:16;98351.00;;;25.20
7389;BMP180;3735;50.136;11.062;2022-08-25T06:22:43;98344.00;;;25.30
7389;BMP180;3735;50.136;11.062;2022-08-25T06:25:12;98350.00;;;25.50
7389;BMP180;3735;50.136;11.062;2022-08-25T06:27:39;98350.00;;;25.90
7389;BMP180;3735;50.136;11.062;2022-08-25T06:30:09;98347.00;;;25.70
7389;BMP180;3735;50.136;11.062;2022-08-25T06:32:39;98345.00;;;26.10
7389;BMP180;3735;50.136;11.062;2022-08-25T06:35:10;98341.00;;;26.30
7389;BMP180;3735;50.136;11.062;2022-08-25T06:37:37;98343.00;;;26.60
7389;BMP180;3735;50.136;11.062;2022-08-25T06:40:08;98350.00;;;27.20
7389;BMP180;3735;50.136;11.062;2022-08-25T06:42:35;98345.00;;;27.90
7389;BMP180;3735;50.136;11.062;2022-08-25T06:45:01;98344.00;;;28.40
7389;BMP180;3735;50.136;11.062;2022-08-25T06:47:27;98343.00;;;28.80
7389;BMP180;3735;50.136;11.062;2022-08-25T06:49:54;98343.00;;;29.50
7389;BMP180;3735;50.136;11.062;2022-08-25T06:52:20;98342.00;;;29.30
7389;BMP180;3735;50.136;11.062;2022-08-25T06:54:46;98334.00;;;29.20
7389;BMP180;3735;50.136;11.062;2022-08-25T06:57:12;98333.00;;;29.00
7389;BMP180;3735;50.136;11.062;2022-08-25T06:59:38;98338.00;;;29.20
7389;BMP180;3735;50.136;11.062;2022-08-25T07:02:05;98339.00;;;29.70
7389;BMP180;3735;50.136;11.062;2022-08-25T07:04:35;98336.00;;;29.90
7389;BMP180;3735;50.136;11.062;2022-08-25T07:07:01;98342.00;;;29.40
7389;BMP180;3735;50.136;11.062;2022-08-25T07:09:27;98342.00;;;29.90
7389;BMP180;3735;50.136;11.062;2022-08-25T07:11:53;98342.00;;;30.30
7389;BMP180;3735;50.136;11.062;2022-08-25T07:14:20;98340.00;;;31.20
7389;BMP180;3735;50.136;11.062;2022-08-25T07:16:46;98336.00;;;31.00
7389;BMP180;3735;50.136;11.062;2022-08-25T07:19:13;98336.00;;;31.30
7389;BMP180;3735;50.136;11.062;2022-08-25T07:21:41;98338.00;;;30.50
7389;BMP180;3735;50.136;11.062;2022-08-25T07:24:12;98335.00;;;31.00
7389;BMP180;3735;50.136;11.062;2022-08-25T07:26:40;98332.00;;;31.50
7389;BMP180;3735;50.136;11.062;2022-08-25T07:29:23;98334.00;;;31.80
7389;BMP180;3735;50.136;11.062;2022-08-25T07:31:49;98329.00;;;32.50
7389;BMP180;3735;50.136;11.062;2022-08-25T07:34:15;98332.00;;;32.90
7389;BMP180;3735;50.136;11.062;2022-08-25T07:36:59;98333.00;;;32.50
7389;BMP180;3735;50.136;11.062;2022-08-25T07:39:26;98326.00;;;32.90
7389;BMP180;3735;50.136;11.062;2022-08-25T07:41:52;98330.00;;;32.90
7389;BMP180;3735;50.136;11.062;2022-08-25T07:44:21;98336.00;;;32.90
7389;BMP180;3735;50.136;11.062;2022-08-25T07:46:49;98335.00;;;33.10
7389;BMP180;3735;50.136;11.062;2022-08-25T07:49:15;98332.00;;;33.60
7389;BMP180;3735;50.136;11.062;2022-08-25T07:51:41;98335.00;;;33.80
7389;BMP180;3735;50.136;11.062;2022-08-25T07:54:07;98336.00;;;34.10
7389;BMP180;3735;50.136;11.062;2022-08-25T07:56:33;98332.00;;;34.20
7389;BMP180;3735;50.136;11.062;2022-08-25T07:58:59;98335.00;;;34.30
7389;BMP180;3735;50.136;11.062;2022-08-25T08:01:25;98331.00;;;34.00
7389;BMP180;3735;50.136;11.062;2022-08-25T08:03:51;98338.00;;;34.20
7389;BMP180;3735;50.136;11.062;2022-08-25T08:06:22;98342.00;;;33.90
7389;BMP180;3735;50.136;11.062;2022-08-25T08:08:50;98343.00;;;34.40
7389;BMP180;3735;50.136;11.062;2022-08-25T08:11:28;98347.00;;;34.90
7389;BMP180;3735;50.136;11.062;2022-08-25T08:13:56;98347.00;;;35.30
7389;BMP180;3735;50.136;11.062;2022-08-25T08:16:26;98342.00;;;35.80
7389;BMP180;3735;50.136;11.062;2022-08-25T08:18:53;98352.00;;;36.40
7389;BMP180;3735;50.136;11.062;2022-08-25T08:21:26;98351.00;;;36.10
7389;BMP180;3735;50.136;11.062;2022-08-25T08:23:54;98343.00;;;35.40
7389;BMP180;3735;50.136;11.062;2022-08-25T08:26:22;98349.00;;;35.30
7389;BMP180;3735;50.136;11.062;2022-08-25T08:28:49;98338.00;;;35.30
7389;BMP180;3735;50.136;11.062;2022-08-25T08:31:20;98347.00;;;34.20
7389;BMP180;3735;50.136;11.062;2022-08-25T08:33:48;98336.00;;;34.60
7389;BMP180;3735;50.136;11.062;2022-08-25T08:36:14;98337.00;;;35.10
7389;BMP180;3735;50.136;11.062;2022-08-25T08:38:42;98335.00;;;35.60
7389;BMP180;3735;50.136;11.062;2022-08-25T08:41:50;98332.00;;;36.60
7389;BMP180;3735;50.136;11.062;2022-08-25T08:44:45;98341.00;;;35.60
7389;BMP180;3735;50.136;11.062;2022-08-25T08:50:21;98333.00;;;35.80
7389;BMP180;3735;50.136;11.062;2022-08-25T08:53:04;98334.00;;;36.70
7389;BMP180;3735;50.136;11.062;2022-08-25T08:58:39;98335.00;;;37.80
7389;BMP180;3735;50.136;11.062;2022-08-25T09:01:09;98336.00;;;37.60
7389;BMP180;3735;50.136;11.062;2022-08-25T09:03:48;98334.00;;;36.90
7389;BMP180;3735;50.136;11.062;2022-08-25T09:06:41;98341.00;;;37.00
7389;BMP180;3735;50.136;11.062;2022-08-25T09:09:12;98330.00;;;35.80
7389;BMP180;3735;50.136;11.062;2022-08-25T09:20:39;98327.00;;;35.10
7389;BMP180;3735;50.136;11.062;2022-08-25T09:28:50;98323.00;;;36.50
7389;BMP180;3735;50.136;11.062;2022-08-25T09:31:32;98324.00;;;35.90
7389;BMP180;3735;50.136;11.062;2022-08-25T09:34:03;98330.00;;;35.80
7389;BMP180;3735;50.136;11.062;2022-08-25T09:36:30;98328.00;;;35.40
7389;BMP180;3735;50.136;11.062;2022-08-25T09:38:59;98325.00;;;36.20
7389;BMP180;3735;50.136;11.062;2022-08-25T09:41:55;98325.00;;;36.30
7389;BMP180;3735;50.136;11.062;2022-08-25T09:44:27;98318.00;;;36.80
7389;BMP180;3735;50.136;11.062;2022-08-25T09:47:18;98314.00;;;36.80
7389;BMP180;3735;50.136;11.062;2022-08-25T09:49:55;98314.00;;;37.10
7389;BMP180;3735;50.136;11.062;2022-08-25T09:52:31;98308.00;;;37.30
7389;BMP180;3735;50.136;11.062;2022-08-25T10:02:59;98303.00;;;33.70
7389;BMP180;3735;50.136;11.062;2022-08-25T10:05:26;98303.00;;;33.20
7389;BMP180;3735;50.136;11.062;2022-08-25T10:07:58;98289.00;;;32.40
7389;BMP180;3735;50.136;11.062;2022-08-25T10:10:43;98298.00;;;33.70
7389;BMP180;3735;50.136;11.062;2022-08-25T10:13:20;98288.00;;;34.30
7389;BMP180;3735;50.136;11.062;2022-08-25T10:16:21;98290.00;;;34.90
7389;BMP180;3735;50.136;11.062;2022-08-25T10:19:12;98285.00;;;35.30
7389;BMP180;3735;50.136;11.062;2022-08-25T10:21:42;98282.00;;;34.40
7389;BMP180;3735;50.136;11.062;2022-08-25T10:24:11;98274.00;;;34.90
7389;BMP180;3735;50.136;11.062;2022-08-25T10:51:32;98229.00;;;35.60
7389;BMP180;3735;50.136;11.062;2022-08-25T10:54:23;98227.00;;;35.70
7389;BMP180;3735;50.136;11.062;2022-08-25T11:00:01;98219.00;;;37.20
7389;BMP180;3735;50.136;11.062;2022-08-25T11:16:46;98197.00;;;38.00
7389;BMP180;3735;50.136;11.062;2022-08-25T11:19:32;98194.00;;;38.50
7389;BMP180;3735;50.136;11.062;2022-08-25T11:22:21;98189.00;;;38.90
7389;BMP180;3735;50.136;11.062;2022-08-25T11:25:05;98187.00;;;38.80
7389;BMP180;3735;50.136;11.062;2022-08-25T11:30:22;98180.00;;;37.60
7389;BMP180;3735;50.136;11.062;2022-08-25T11:32:52;98183.00;;;37.80
7389;BMP180;3735;50.136;11.062;2022-08-25T11:35:34;98184.00;;;37.70
7389;BMP180;3735;50.136;11.062;2022-08-25T11:44:26;98192.00;;;38.70
7389;BMP180;3735;50.136;11.062;2022-08-25T11:50:06;98185.00;;;38.50
7389;BMP180;3735;50.136;11.062;2022-08-25T11:58:48;98172.00;;;36.20
7389;BMP180;3735;50.136;11.062;2022-08-25T12:12:37;98174.00;;;35.90
7389;BMP180;3735;50.136;11.062;2022-08-25T12:23:43;98171.00;;;35.60
7389;BMP180;3735;50.136;11.062;2022-08-25T12:26:29;98167.00;;;36.20
7389;BMP180;3735;50.136;11.062;2022-08-25T12:29:41;98169.00;;;37.20
7389;BMP180;3735;50.136;11.062;2022-08-25T12:38:17;98162.00;;;38.80
7389;BMP180;3735;50.136;11.062;2022-08-25T12:41:10;98159.00;;;40.60
7389;BMP180;3735;50.136;11.062;2022-08-25T12:43:43;98165.00;;;41.30
7389;BMP180;3735;50.136;11.062;2022-08-25T12:49:11;98162.00;;;37.00
7389;BMP180;3735;50.136;11.062;2022-08-25T12:52:01;98157.00;;;37.20
7389;BMP180;3735;50.136;11.062;2022-08-25T12:57:44;98148.00;;;38.30
7389;BMP180;3735;50.136;11.062;2022-08-25T13:00:25;98155.00;;;38.40
7389;BMP180;3735;50.136;11.062;2022-08-25T13:03:24;98148.00;;;38.30
7389;BMP180;3735;50.136;11.062;2022-08-25T13:14:42;98154.00;;;34.70
7389;BMP180;3735;50.136;11.062;2022-08-25T13:17:08;98151.00;;;33.90
7389;BMP180;3735;50.136;11.062;2022-08-25T13:19:36;98146.00;;;34.10
7389;BMP180;3735;50.136;11.062;2022-08-25T13:22:17;98129.00;;;34.30
7389;BMP180;3735;50.136;11.062;2022-08-25T13:24:47;98125.00;;;34.70
7389;BMP180;3735;50.136;11.062;2022-08-25T13:27:26;98135.00;;;34.80
7389;BMP180;3735;50.136;11.062;2022-08-25T13:29:56;98125.00;;;35.00
7389;BMP180;3735;50.136;11.062;2022-08-25T13:32:35;98124.00;;;34.50
7389;BMP180;3735;50.136;11.062;2022-08-25T13:35:29;98120.00;;;33.70
7389;BMP180;3735;50.136;11.062;2022-08-25T13:38:18;98129.00;;;33.40
7389;BMP180;3735;50.136;11.062;2022-08-25T13:40:44;98128.00;;;33.50
7389;BMP180;3735;50.136;11.062;2022-08-25T13:43:13;98116.00;;;33.10
7389;BMP180;3735;50.136;11.062;2022-08-25T13:45:45;98122.00;;;33.30
7389;BMP180;3735;50.136;11.062;2022-08-25T13:48:19;98118.00;;;33.50
7389;BMP180;3735;50.136;11.062;2022-08-25T13:51:07;98110.00;;;33.80
7389;BMP180;3735;50.136;11.062;2022-08-25T13:53:34;98112.00;;;33.10
7389;BMP180;3735;50.136;11.062;2022-08-25T13:56:02;98101.00;;;33.80
7389;BMP180;3735;50.136;11.062;2022-08-25T13:58:34;98110.00;;;33.80
7389;BMP180;3735;50.136;11.062;2022-08-25T14:01:30;98109.00;;;34.20
7389;BMP180;3735;50.136;11.062;2022-08-25T14:04:24;98106.00;;;33.90
7389;BMP180;3735;50.136;11.062;2022-08-25T14:12:45;98098.00;;;33.10
7389;BMP180;3735;50.136;11.062;2022-08-25T14:18:18;98097.00;;;33.20
7389;BMP180;3735;50.136;11.062;2022-08-25T14:20:52;98095.00;;;33.30
7389;BMP180;3735;50.136;11.062;2022-08-25T14:23:23;98093.00;;;32.80
7389;BMP180;3735;50.136;11.062;2022-08-25T14:25:54;98093.00;;;32.80
7389;BMP180;3735;50.136;11.062;2022-08-25T14:28:24;98084.00;;;33.00
7389;BMP180;3735;50.136;11.062;2022-08-25T14:30:59;98092.00;;;33.40
7389;BMP180;3735;50.136;11.062;2022-08-25T14:33:35;98083.00;;;32.50
7389;BMP180;3735;50.136;11.062;2022-08-25T14:36:01;98082.00;;;33.30
7389;BMP180;3735;50.136;11.062;2022-08-25T14:38:29;98078.00;;;33.30
7389;BMP180;3735;50.136;11.062;2022-08-25T14:40:55;98077.00;;;33.20
7389;BMP180;3735;50.136;11.062;2022-08-25T14:43:22;98076.00;;;33.10
7389;BMP180;3735;50.136;11.062;2022-08-25T14:45:48;98070.00;;;33.10
7389;BMP180;3735;50.136;11.062;2022-08-25T14:48:27;98077.00;;;33.10
7389;BMP180;3735;50.136;11.062;2022-08-25T14:50:57;98069.00;;;33.00
7389;BMP180;3735;50.136;11.062;2022-08-25T14:53:24;98065.00;;;32.80
7389;BMP180;3735;50.136;11.062;2022-08-25T14:55:50;98070.00;;;32.60
7389;BMP180;3735;50.136;11.062;2022-08-25T14:58:21;98068.00;;;32.10
7389;BMP180;3735;50.136;11.062;2022-08-25T15:00:48;98068.00;;;32.00
7389;BMP180;3735;50.136;11.062;2022-08-25T15:03:19;98071.00;;;31.90
7389;BMP180;3735;50.136;11.062;2022-08-25T15:05:46;98065.00;;;32.10
7389;BMP180;3735;50.136;11.062;2022-08-25T15:08:12;98062.00;;;31.60
7389;BMP180;3735;50.136;11.062;2022-08-25T15:10:56;98061.00;;;31.30
7389;BMP180;3735;50.136;11.062;2022-08-25T15:13:22;98060.00;;;31.30
7389;BMP180;3735;50.136;11.062;2022-08-25T15:15:48;98051.00;;;31.10
7389;BMP180;3735;50.136;11.062;2022-08-25T15:18:16;98058.00;;;31.00
7389;BMP180;3735;50.136;11.062;2022-08-25T15:20:42;98057.00;;;30.90
7389;BMP180;3735;50.136;11.062;2022-08-25T15:23:07;98059.00;;;30.80
7389;BMP180;3735;50.136;11.062;2022-08-25T15:25:34;98056.00;;;30.80
7389;BMP180;3735;50.136;11.062;2022-08-25T15:28:05;98061.00;;;30.70
7389;BMP180;3735;50.136;11.062;2022-08-25T15:30:32;98051.00;;;30.60
7389;BMP180;3735;50.136;11.062;2022-08-25T15:32:59;98059.00;;;30.60
7389;BMP180;3735;50.136;11.062;2022-08-25T15:35:26;98050.00;;;30.60
7389;BMP180;3735;50.136;11.062;2022-08-25T15:37:52;98054.00;;;30.50
7389;BMP180;3735;50.136;11.062;2022-08-25T15:40:18;98049.00;;;30.30
7389;BMP180;3735;50.136;11.062;2022-08-25T15:42:44;98052.00;;;29.80
7389;BMP180;3735;50.136;11.062;2022-08-25T15:45:10;98059.00;;;29.80
7389;BMP180;3735;50.136;11.062;2022-08-25T15:47:36;98052.00;;;29.50
7389;BMP180;3735;50.136;11.062;2022-08-25T15:50:10;98052.00;;;29.40
7389;BMP180;3735;50.136;11.062;2022-08-25T15:52:39;98047.00;;;29.40
7389;BMP180;3735;50.136;11.062;2022-08-25T15:55:05;98051.00;;;29.40
7389;BMP180;3735;50.136;11.062;2022-08-25T15:57:32;98054.00;;;29.00
7389;BMP180;3735;50.136;11.062;2022-08-25T15:59:58;98054.00;;;29.20
7389;BMP180;3735;50.136;11.062;2022-08-25T16:02:24;98042.00;;;29.20
7389;BMP180;3735;50.136;11.062;2022-08-25T16:04:50;98050.00;;;29.20
7389;BMP180;3735;50.136;11.062;2022-08-25T16:07:19;98032.00;;;29.20
7389;BMP180;3735;50.136;11.062;2022-08-25T16:09:45;98052.00;;;29.00
7389;BMP180;3735;50.136;11.062;2022-08-25T16:12:12;98050.00;;;29.00
7389;BMP180;3735;50.136;11.062;2022-08-25T16:14:38;98045.00;;;28.90
7389;BMP180;3735;50.136;11.062;2022-08-25T16:17:05;98041.00;;;28.90
7389;BMP180;3735;50.136;11.062;2022-08-25T16:19:32;98038.00;;;28.80
7389;BMP180;3735;50.136;11.062;2022-08-25T16:21:59;98043.00;;;28.80
7389;BMP180;3735;50.136;11.062;2022-08-25T16:24:25;98028.00;;;28.70
7389;BMP180;3735;50.136;11.062;2022-08-25T16:26:51;98028.00;;;28.40
7389;BMP180;3735;50.136;11.062;2022-08-25T16:29:18;98026.00;;;28.30
7389;BMP180;3735;50.136;11.062;2022-08-25T16:31:45;98028.00;;;28.20
7389;BMP180;3735;50.136;11.062;2022-08-25T16:34:10;98025.00;;;28.20
7389;BMP180;3735;50.136;11.062;2022-08-25T16:36:37;98026.00;;;28.10
7389;BMP180;3735;50.136;11.062;2022-08-25T16:39:04;98015.00;;;27.90
7389;BMP180;3735;50.136;11.062;2022-08-25T16:41:31;98021.00;;;27.90
7389;BMP180;3735;50.136;11.062;2022-08-25T16:44:05;98027.00;;;27.80
7389;BMP180;3735;50.136;11.062;2022-08-25T16:46:33;98029.00;;;27.70
7389;BMP180;3735;50.136;11.062;2022-08-25T16:49:01;98022.00;;;27.70
7389;BMP180;3735;50.136;11.062;2022-08-25T16:51:28;98013.00;;;27.60
7389;BMP180;3735;50.136;11.062;2022-08-25T16:53:56;98014.00;;;27.40
7389;BMP180;3735;50.136;11.062;2022-08-25T16:56:42;98018.00;;;27.30
7389;BMP180;3735;50.136;11.062;2022-08-25T16:59:12;98011.00;;;27.20
7389;BMP180;3735;50.136;11.062;2022-08-25T17:01:41;98013.00;;;27.10
7389;BMP180;3735;50.136;11.062;2022-08-25T17:04:08;98003.00;;;27.10